الصفحة الرئيسية
METAR-TAF:

METAR-TAF

مطار :

Guymon, أوكلاهوما, الولايات المتحدة

دائرة عرض: 36-40-54N, خط طول: 101-30-19W, ارتفاع: 952 متر

مراقبة الطقس الحالي

تاريخ ووقت الإصدار 13 دقيقة قبل الساعة 18:53UTC
ريح 12 عقدة من الشمال تتزايد حتى 17 عقدة
درجة الحرارة 29°درجة مئوية
الرطوبة 52%
ضغط 1015 hPa
الرؤية: 16.1 كم
غيوم قليلة على ارتفاع 5000 قدم
غيوم متفرقة على ارتفاع 7000 قدم

METAR: KGUY 141853Z AUTO 36012G17KT 10SM FEW050 SCT070 29/18 A2997 RMK AO2 SLP099 T02940183

زمن: 14:06 (19:06 UTC)

توقعات

تاريخ ووقت الإصدار 1ساعة و 35 دقيقة قبل الساعة 17:31UTC
التوقعات صالحة من14 الساعة 18 UTC إلى 15 الساعة 18 UTC
ريح 7 عقدة من الشمال
الرؤية: 10 كم
غيوم متفرقة على ارتفاع 4000 قدم
غيوم متفرقة على ارتفاع 10000 قدم
من 15 الساعة 1700 UTC
ريح 6 عقدة من الشرق
الرؤية: 10 كم
غيوم قليلة على ارتفاع 9000 قدم
غيوم قليلة على ارتفاع 20000 قدم

TAF: KGUY 141731Z 1418/1518 01007KT P6SM SCT040 SCT100 FM151700 09006KT P6SM FEW090 FEW200

أرصاد الطقس والتوقعات من أكثر من 4000 مطار (تقارير الطقس للمطار METAR والتنبؤ بالطقس بالمطارTAF).

المحطات المتاحة هي النقط الصفراء والحمراء على الخريطة.

حرك المؤشر فوق النقطة لمعرفة اسم المحطة.

ثم انقر لمعرفة أرصاد وتوقعات الطقس.

لتغيير الخارطة: اضغط على الأزرار الخضراء مع رمز الصليب الأسود للتكبير. على الزر الأخضر مع شرطة للتصغير، أو على الأسهم الخضراء للخرائط المجاورة.


METAR-TAF: